createdAt,value
2022-12-14T00:00:11.174Z,-1.68
2022-12-14T00:01:11.118Z,-1.68
2022-12-14T00:02:11.122Z,-1.71
2022-12-14T00:03:11.234Z,-1.74
2022-12-14T00:04:11.112Z,-1.68
2022-12-14T00:05:11.072Z,-1.62
2022-12-14T00:06:11.062Z,-1.68
2022-12-14T00:07:11.044Z,-1.61
2022-12-14T00:08:11.043Z,-1.58
2022-12-14T00:09:11.024Z,-1.58
2022-12-14T00:10:11.027Z,-1.53
2022-12-14T00:11:11.011Z,-1.61
2022-12-14T00:12:10.993Z,-1.59
2022-12-14T00:13:10.984Z,-1.61
2022-12-14T00:14:10.979Z,-1.59
2022-12-14T00:15:11.019Z,-1.71
2022-12-14T00:16:10.985Z,-1.72
2022-12-14T00:17:10.995Z,-1.74
2022-12-14T00:18:10.900Z,-1.69
2022-12-14T00:19:11.053Z,-1.68
2022-12-14T00:20:10.899Z,-1.74
2022-12-14T00:21:10.938Z,-1.69
2022-12-14T00:22:10.866Z,-1.72
2022-12-14T00:23:10.874Z,-1.72
2022-12-14T00:24:10.842Z,-1.76
2022-12-14T00:25:10.827Z,-1.68
2022-12-14T00:26:10.825Z,-1.76
2022-12-14T00:27:10.806Z,-1.77
2022-12-14T00:28:10.848Z,-1.69
2022-12-14T00:29:10.768Z,-1.69
2022-12-14T00:30:10.759Z,-1.72
2022-12-14T00:31:10.787Z,-1.66
2022-12-14T00:32:10.735Z,-1.74
2022-12-14T00:33:10.737Z,-1.83
2022-12-14T00:34:10.732Z,-1.72
2022-12-14T00:35:10.699Z,-1.77
2022-12-14T00:36:10.702Z,-1.76
2022-12-14T00:37:10.738Z,-1.65
2022-12-14T00:38:10.651Z,-1.71
2022-12-14T00:39:10.678Z,-1.74
2022-12-14T00:40:10.621Z,-1.68
2022-12-14T00:41:10.608Z,-1.74
2022-12-14T00:42:10.613Z,-1.72
2022-12-14T00:43:10.607Z,-1.66
2022-12-14T00:44:10.662Z,-1.74
2022-12-14T00:45:10.760Z,-1.83
2022-12-14T00:46:10.584Z,-1.80
2022-12-14T00:47:10.772Z,-1.77
2022-12-14T00:48:10.686Z,-1.71
2022-12-14T00:49:10.571Z,-1.77
2022-12-14T00:50:10.531Z,-1.72
2022-12-14T00:51:10.504Z,-1.76
2022-12-14T00:52:10.482Z,-1.69
2022-12-14T00:53:10.476Z,-1.74
2022-12-14T00:54:10.492Z,-1.66
2022-12-14T00:55:10.447Z,-1.71
2022-12-14T00:56:10.443Z,-1.71
2022-12-14T00:57:10.416Z,-1.71
2022-12-14T00:58:10.411Z,-1.72
2022-12-14T00:59:10.433Z,-1.72
2022-12-14T01:00:10.372Z,-1.66
2022-12-14T01:01:10.429Z,-1.80
2022-12-14T01:02:10.463Z,-1.68
2022-12-14T01:03:10.342Z,-1.66
2022-12-14T01:04:10.384Z,-1.72
2022-12-14T01:05:10.342Z,-1.80
2022-12-14T01:06:10.308Z,-1.69
2022-12-14T01:07:10.303Z,-1.74
2022-12-14T01:08:10.275Z,-1.72
2022-12-14T01:09:10.290Z,-1.79
2022-12-14T01:10:10.251Z,-1.84
2022-12-14T01:11:10.232Z,-1.87
2022-12-14T01:12:10.218Z,-1.87
2022-12-14T01:13:10.244Z,-1.90
2022-12-14T01:14:10.219Z,-1.84
2022-12-14T01:15:10.178Z,-1.83
2022-12-14T01:16:10.241Z,-1.87
2022-12-14T01:17:10.153Z,-1.79
2022-12-14T01:18:10.140Z,-1.89
2022-12-14T01:19:10.139Z,-1.97
2022-12-14T01:20:10.136Z,-1.92
2022-12-14T01:21:10.110Z,-1.89
2022-12-14T01:22:10.098Z,-1.94
2022-12-14T01:23:10.081Z,-1.90
2022-12-14T01:24:10.084Z,-1.94
2022-12-14T01:25:10.065Z,-1.98
2022-12-14T01:26:10.044Z,-1.95
2022-12-14T01:27:10.034Z,-1.97
2022-12-14T01:28:10.027Z,-1.97
2022-12-14T01:29:10.004Z,-2.01
2022-12-14T01:30:09.995Z,-2.10
2022-12-14T01:31:10.074Z,-2.05
2022-12-14T01:32:09.976Z,-2.02
2022-12-14T01:33:10.002Z,-2.13
2022-12-14T01:34:09.953Z,-2.10
2022-12-14T01:35:09.932Z,-2.08
2022-12-14T01:36:09.921Z,-2.12
2022-12-14T01:37:09.905Z,-2.05
2022-12-14T01:38:09.887Z,-2.05
2022-12-14T01:39:09.893Z,-2.07
2022-12-14T01:40:09.938Z,-2.04
2022-12-14T01:41:09.875Z,-2.12
2022-12-14T01:42:09.843Z,-2.12
2022-12-14T01:43:09.829Z,-2.04
2022-12-14T01:44:09.828Z,-2.04
2022-12-14T01:45:09.820Z,-2.04
2022-12-14T01:46:09.844Z,-2.04
2022-12-14T01:47:12.828Z,-2.01
2022-12-14T01:48:09.764Z,-2.02
2022-12-14T01:49:09.745Z,-2.04
2022-12-14T01:50:09.740Z,-2.01
2022-12-14T01:51:09.733Z,-2.05
2022-12-14T01:52:09.714Z,-2.05
2022-12-14T01:53:09.694Z,-2.10
2022-12-14T01:54:09.692Z,-2.10
2022-12-14T01:55:09.680Z,-2.05
2022-12-14T01:56:09.668Z,-2.15
2022-12-14T01:57:09.650Z,-2.08
2022-12-14T01:58:09.648Z,-2.12
2022-12-14T01:59:09.627Z,-2.10
2022-12-14T02:00:09.724Z,-2.10
2022-12-14T02:01:09.627Z,-2.08
2022-12-14T02:02:09.671Z,-2.12
2022-12-14T02:03:09.631Z,-2.12
2022-12-14T02:04:09.575Z,-2.10
2022-12-14T02:05:09.542Z,-2.10
2022-12-14T02:06:09.531Z,-2.13
2022-12-14T02:07:09.531Z,-2.13
2022-12-14T02:08:09.524Z,-2.25
2022-12-14T02:09:09.520Z,-2.25
2022-12-14T02:10:09.484Z,-2.15
2022-12-14T02:11:09.474Z,-2.16
2022-12-14T02:12:09.450Z,-2.16
2022-12-14T02:13:09.460Z,-2.16
2022-12-14T02:14:09.425Z,-2.19
2022-12-14T02:15:09.421Z,-2.22
2022-12-14T02:16:09.441Z,-2.07
2022-12-14T02:17:09.405Z,-2.18
2022-12-14T02:18:09.375Z,-2.15
2022-12-14T02:19:09.375Z,-2.25
2022-12-14T02:20:09.353Z,-2.12
2022-12-14T02:21:09.336Z,-2.16
2022-12-14T02:22:09.332Z,-2.12
2022-12-14T02:23:09.332Z,-2.15
2022-12-14T02:24:09.306Z,-2.22
2022-12-14T02:25:09.287Z,-2.15
2022-12-14T02:26:09.297Z,-2.15
2022-12-14T02:27:09.281Z,-2.22
2022-12-14T02:28:09.267Z,-2.25
2022-12-14T02:29:09.279Z,-2.26
2022-12-14T02:30:09.235Z,-2.25
2022-12-14T02:31:09.238Z,-2.22
2022-12-14T02:32:09.215Z,-2.19
2022-12-14T02:33:09.197Z,-2.26
2022-12-14T02:34:09.178Z,-2.21
2022-12-14T02:35:09.160Z,-2.22
2022-12-14T02:36:09.165Z,-2.30
2022-12-14T02:37:09.148Z,-2.26
2022-12-14T02:38:09.145Z,-2.32
2022-12-14T02:39:09.133Z,-2.37
2022-12-14T02:40:09.107Z,-2.38
2022-12-14T02:41:09.082Z,-2.42
2022-12-14T02:42:09.084Z,-2.38
2022-12-14T02:43:09.059Z,-2.40
2022-12-14T02:44:09.037Z,-2.40
2022-12-14T02:45:09.031Z,-2.34
2022-12-14T02:46:09.023Z,-2.32
2022-12-14T02:47:09.025Z,-2.35
2022-12-14T02:48:08.986Z,-2.35
2022-12-14T02:49:08.981Z,-2.40
2022-12-14T02:50:08.976Z,-2.40
2022-12-14T02:51:08.955Z,-2.50
2022-12-14T02:52:08.938Z,-2.40
2022-12-14T02:53:08.930Z,-2.45
2022-12-14T02:54:08.908Z,-2.55
2022-12-14T02:55:08.917Z,-2.48
2022-12-14T02:56:08.903Z,-2.45
2022-12-14T02:57:08.976Z,-2.47
2022-12-14T02:58:08.863Z,-2.45
2022-12-14T02:59:08.867Z,-2.60
2022-12-14T03:00:08.844Z,-2.60
2022-12-14T03:01:08.927Z,-2.55
2022-12-14T03:02:08.921Z,-2.59
2022-12-14T03:03:08.823Z,-2.59
2022-12-14T03:04:08.783Z,-2.48
2022-12-14T03:05:08.800Z,-2.47
2022-12-14T03:06:08.758Z,-2.45
2022-12-14T03:07:08.741Z,-2.50
2022-12-14T03:08:08.745Z,-2.55
2022-12-14T03:09:08.730Z,-2.45
2022-12-14T03:10:08.708Z,-2.47
2022-12-14T03:11:08.707Z,-2.47
2022-12-14T03:12:08.684Z,-2.50
2022-12-14T03:13:08.661Z,-2.60
2022-12-14T03:14:08.661Z,-2.58
2022-12-14T03:15:08.650Z,-2.56
2022-12-14T03:16:08.666Z,-2.59
2022-12-14T03:17:08.620Z,-2.60
2022-12-14T03:18:08.603Z,-2.53
2022-12-14T03:19:08.590Z,-2.65
2022-12-14T03:20:08.575Z,-2.70
2022-12-14T03:21:08.587Z,-2.60
2022-12-14T03:22:08.549Z,-2.56
2022-12-14T03:23:08.533Z,-2.55
2022-12-14T03:24:08.526Z,-2.70
2022-12-14T03:25:08.514Z,-2.69
2022-12-14T03:26:08.517Z,-2.66
2022-12-14T03:27:08.498Z,-2.66
2022-12-14T03:28:08.472Z,-2.73
2022-12-14T03:29:08.453Z,-2.74
2022-12-14T03:30:08.458Z,-2.69
2022-12-14T03:31:08.516Z,-2.73
2022-12-14T03:32:08.445Z,-2.66
2022-12-14T03:33:08.409Z,-2.56
2022-12-14T03:34:13.092Z,-2.59
2022-12-14T03:35:08.401Z,-2.70
2022-12-14T03:36:08.377Z,-2.58
2022-12-14T03:37:08.583Z,-2.56
2022-12-14T03:38:08.337Z,-2.63
2022-12-14T03:39:08.324Z,-2.58
2022-12-14T03:40:08.366Z,-2.66
2022-12-14T03:41:08.310Z,-2.65
2022-12-14T03:42:08.296Z,-2.71
2022-12-14T03:43:08.278Z,-2.62
2022-12-14T03:44:08.255Z,-2.77
2022-12-14T03:45:08.253Z,-2.74
2022-12-14T03:46:08.276Z,-2.74
2022-12-14T03:47:08.243Z,-2.78
2022-12-14T03:48:08.241Z,-2.77
2022-12-14T03:49:08.208Z,-2.91
2022-12-14T03:50:08.202Z,-2.74
2022-12-14T03:51:08.231Z,-2.80
2022-12-14T03:52:08.161Z,-2.80
2022-12-14T03:53:08.207Z,-2.86
2022-12-14T03:54:08.130Z,-2.88
2022-12-14T03:55:08.122Z,-2.98
2022-12-14T03:56:08.116Z,-2.86
2022-12-14T03:57:08.111Z,-2.91
2022-12-14T03:58:08.087Z,-2.91
2022-12-14T03:59:08.085Z,-2.92
2022-12-14T04:00:08.058Z,-2.80
2022-12-14T04:01:08.376Z,-2.84
2022-12-14T04:02:08.205Z,-2.78
2022-12-14T04:03:08.087Z,-2.77
2022-12-14T04:04:08.007Z,-2.76
2022-12-14T04:05:07.988Z,-2.76
2022-12-14T04:06:07.972Z,-2.78
2022-12-14T04:07:07.982Z,-2.84
2022-12-14T04:08:08.009Z,-2.77
2022-12-14T04:09:07.970Z,-2.80
2022-12-14T04:10:07.934Z,-2.94
2022-12-14T04:11:07.913Z,-2.89
2022-12-14T04:12:07.909Z,-2.76
2022-12-14T04:13:07.903Z,-2.91
2022-12-14T04:14:07.899Z,-2.81
2022-12-14T04:15:07.891Z,-2.98
2022-12-14T04:16:07.901Z,-2.94
2022-12-14T04:17:07.836Z,-2.81
2022-12-14T04:18:07.849Z,-2.89
2022-12-14T04:19:07.846Z,-2.99
2022-12-14T04:20:07.829Z,-3.02
2022-12-14T04:21:07.785Z,-3.13
2022-12-14T04:22:07.789Z,-3.15
2022-12-14T04:23:07.753Z,-3.15
2022-12-14T04:24:07.782Z,-3.12
2022-12-14T04:25:07.734Z,-3.16
2022-12-14T04:26:07.720Z,-3.12
2022-12-14T04:27:07.707Z,-3.13
2022-12-14T04:28:07.701Z,-3.20
2022-12-14T04:29:07.695Z,-3.16
2022-12-14T04:30:07.666Z,-3.15
2022-12-14T04:31:07.652Z,-3.15
2022-12-14T04:32:07.805Z,-3.12
2022-12-14T04:33:07.643Z,-3.22
2022-12-14T04:34:07.606Z,-3.17
2022-12-14T04:35:07.611Z,-3.17
2022-12-14T04:36:07.581Z,-3.17
2022-12-14T04:37:07.575Z,-3.25
2022-12-14T04:38:07.727Z,-3.34
2022-12-14T04:39:07.599Z,-3.28
2022-12-14T04:40:07.534Z,-3.31
2022-12-14T04:41:07.585Z,-3.31
2022-12-14T04:42:07.527Z,-3.33
2022-12-14T04:43:07.512Z,-3.25
2022-12-14T04:44:07.479Z,-3.31
2022-12-14T04:45:07.500Z,-3.22
2022-12-14T04:46:07.509Z,-3.19
2022-12-14T04:47:07.470Z,-3.31
2022-12-14T04:48:07.442Z,-3.28
2022-12-14T04:49:07.420Z,-3.31
2022-12-14T04:50:07.391Z,-3.33
2022-12-14T04:51:07.393Z,-3.33
2022-12-14T04:52:07.367Z,-3.30
2022-12-14T04:53:07.354Z,-3.31
2022-12-14T04:54:07.358Z,-3.30
2022-12-14T04:55:07.337Z,-3.33
2022-12-14T04:56:07.321Z,-3.28
2022-12-14T04:57:07.299Z,-3.28
2022-12-14T04:58:07.313Z,-3.31
2022-12-14T04:59:07.284Z,-3.33
2022-12-14T05:00:07.248Z,-3.28
2022-12-14T05:01:07.264Z,-3.33
2022-12-14T05:02:07.390Z,-3.30
2022-12-14T05:03:07.335Z,-3.27
2022-12-14T05:04:12.330Z,-3.30
2022-12-14T05:05:07.194Z,-3.27
2022-12-14T05:06:07.187Z,-3.22
2022-12-14T05:07:07.189Z,-3.33
2022-12-14T05:08:07.198Z,-3.31
2022-12-14T05:09:07.166Z,-3.38
2022-12-14T05:10:07.124Z,-3.44
2022-12-14T05:11:39.457Z,-3.44
2022-12-14T05:12:07.107Z,-3.48
2022-12-14T05:13:07.098Z,-3.38
2022-12-14T05:14:07.090Z,-3.51
2022-12-14T05:15:07.068Z,-3.58
2022-12-14T05:16:07.049Z,-3.66
2022-12-14T05:17:09.234Z,-3.61
2022-12-14T05:18:07.049Z,-3.67
2022-12-14T05:19:07.018Z,-3.59
2022-12-14T05:20:06.992Z,-3.66
2022-12-14T05:21:06.983Z,-3.63
2022-12-14T05:22:06.966Z,-3.61
2022-12-14T05:23:06.971Z,-3.69
2022-12-14T05:24:06.940Z,-3.64
2022-12-14T05:25:06.935Z,-3.66
2022-12-14T05:26:06.907Z,-3.67
2022-12-14T05:27:06.906Z,-3.66
2022-12-14T05:28:06.900Z,-3.59
2022-12-14T05:29:06.883Z,-3.64
2022-12-14T05:30:06.856Z,-3.58
2022-12-14T05:31:06.873Z,-3.61
2022-12-14T05:32:06.840Z,-3.69
2022-12-14T05:33:06.821Z,-3.54
2022-12-14T05:34:06.832Z,-3.51
2022-12-14T05:35:06.808Z,-3.51
2022-12-14T05:36:06.781Z,-3.45
2022-12-14T05:37:06.776Z,-3.48
2022-12-14T05:38:06.761Z,-3.46
2022-12-14T05:39:06.757Z,-3.41
2022-12-14T05:40:06.856Z,-3.52
2022-12-14T05:41:06.715Z,-3.46
2022-12-14T05:42:06.694Z,-3.48
2022-12-14T05:43:06.715Z,-3.27
2022-12-14T05:44:06.681Z,-3.35
2022-12-14T05:45:06.659Z,-3.28
2022-12-14T05:46:06.743Z,-3.34
2022-12-14T05:47:06.636Z,-3.41
2022-12-14T05:48:06.635Z,-3.35
2022-12-14T05:49:06.614Z,-3.45
2022-12-14T05:50:06.581Z,-3.48
2022-12-14T05:51:06.572Z,-3.41
2022-12-14T05:52:06.577Z,-3.44
2022-12-14T05:53:06.556Z,-3.35
2022-12-14T05:54:06.551Z,-3.33
2022-12-14T05:55:06.568Z,-3.38
2022-12-14T05:56:06.508Z,-3.33
2022-12-14T05:57:06.498Z,-3.41
2022-12-14T05:58:06.518Z,-3.35
2022-12-14T05:59:06.489Z,-3.48
2022-12-14T06:00:06.487Z,-3.40
2022-12-14T06:01:06.481Z,-3.51
2022-12-14T06:02:06.582Z,-3.41
2022-12-14T06:03:06.479Z,-3.44
2022-12-14T06:04:06.492Z,-3.41
2022-12-14T06:05:06.421Z,-3.49
2022-12-14T06:06:06.377Z,-3.49
2022-12-14T06:07:06.368Z,-3.55
2022-12-14T06:08:06.360Z,-3.52
2022-12-14T06:09:06.341Z,-3.49
2022-12-14T06:10:06.371Z,-3.46
2022-12-14T06:11:06.338Z,-3.48
2022-12-14T06:12:06.292Z,-3.52
2022-12-14T06:13:06.287Z,-3.48
2022-12-14T06:14:06.302Z,-3.48
2022-12-14T06:15:06.275Z,-3.52
2022-12-14T06:16:06.331Z,-3.52
2022-12-14T06:17:06.237Z,-3.52
2022-12-14T06:18:06.231Z,-3.51
2022-12-14T06:19:06.228Z,-3.51
2022-12-14T06:20:06.199Z,-3.55
2022-12-14T06:21:06.180Z,-3.61
2022-12-14T06:22:06.168Z,-3.66
2022-12-14T06:23:06.148Z,-3.58
2022-12-14T06:24:06.177Z,-3.66
2022-12-14T06:25:06.120Z,-3.70
2022-12-14T06:26:06.113Z,-3.74
2022-12-14T06:27:06.094Z,-3.59
2022-12-14T06:28:06.077Z,-3.70
2022-12-14T06:29:06.065Z,-3.59
2022-12-14T06:30:06.067Z,-3.56
2022-12-14T06:31:06.112Z,-3.61
2022-12-14T06:32:06.032Z,-3.56
2022-12-14T06:33:06.017Z,-3.63
2022-12-14T06:34:06.034Z,-3.67
2022-12-14T06:35:05.988Z,-3.64
2022-12-14T06:36:05.973Z,-3.63
2022-12-14T06:37:05.974Z,-3.64
2022-12-14T06:38:05.956Z,-3.69
2022-12-14T06:39:05.942Z,-3.67
2022-12-14T06:40:05.931Z,-3.48
2022-12-14T06:41:05.905Z,-3.49
2022-12-14T06:42:05.897Z,-3.45
2022-12-14T06:43:05.889Z,-3.46
2022-12-14T06:44:05.880Z,-3.46
2022-12-14T06:45:05.861Z,-3.44
2022-12-14T06:46:09.953Z,-3.48
2022-12-14T06:47:05.830Z,-3.51
2022-12-14T06:48:05.827Z,-3.55
2022-12-14T06:49:05.834Z,-3.51
2022-12-14T06:50:05.788Z,-3.54
2022-12-14T06:51:05.786Z,-3.52
2022-12-14T06:52:05.765Z,-3.56
2022-12-14T06:53:05.738Z,-3.59
2022-12-14T06:54:05.738Z,-3.52
2022-12-14T06:55:05.757Z,-3.54
2022-12-14T06:56:05.738Z,-3.54
2022-12-14T06:57:05.729Z,-3.48
2022-12-14T06:58:05.702Z,-3.46
2022-12-14T06:59:05.710Z,-3.49
2022-12-14T07:00:05.743Z,-3.51
2022-12-14T07:01:05.756Z,-3.51
2022-12-14T07:02:05.732Z,-3.48
2022-12-14T07:03:05.791Z,-3.52
2022-12-14T07:04:05.611Z,-3.46
2022-12-14T07:05:05.619Z,-3.52
2022-12-14T07:06:05.575Z,-3.49
2022-12-14T07:07:05.554Z,-3.49
2022-12-14T07:08:05.550Z,-3.44
2022-12-14T07:09:05.552Z,-3.49
2022-12-14T07:10:05.531Z,-3.40
2022-12-14T07:11:05.501Z,-3.44
2022-12-14T07:12:05.499Z,-3.54
2022-12-14T07:13:05.484Z,-3.41
2022-12-14T07:14:05.467Z,-3.41
2022-12-14T07:15:05.455Z,-3.44
2022-12-14T07:16:05.521Z,-3.41
2022-12-14T07:17:05.433Z,-3.38
2022-12-14T07:18:05.428Z,-3.51
2022-12-14T07:19:05.408Z,-3.15
2022-12-14T07:20:05.444Z,-2.63
2022-12-14T07:21:05.397Z,-2.10
2022-12-14T07:22:05.392Z,-1.56
2022-12-14T07:23:05.341Z,-1.02
2022-12-14T07:24:05.346Z,-0.52
2022-12-14T07:25:05.368Z,-0.17
2022-12-14T07:26:05.345Z,0.11
2022-12-14T07:27:05.290Z,0.04
2022-12-14T07:28:05.290Z,-0.29
2022-12-14T07:29:05.269Z,-0.53
2022-12-14T07:30:05.273Z,-0.83
2022-12-14T07:31:05.269Z,-1.17
2022-12-14T07:32:05.230Z,-1.33
2022-12-14T07:33:05.218Z,-1.59
2022-12-14T07:34:05.196Z,-1.80
2022-12-14T07:35:05.186Z,-1.98
2022-12-14T07:36:05.187Z,-2.12
2022-12-14T07:37:05.160Z,-2.23
2022-12-14T07:38:05.144Z,-2.41
2022-12-14T07:39:05.139Z,-2.48
2022-12-14T07:40:05.128Z,-2.56
2022-12-14T07:41:05.145Z,-2.59
2022-12-14T07:42:05.095Z,-2.71
2022-12-14T07:43:05.091Z,-2.74
2022-12-14T07:44:05.112Z,-2.77
2022-12-14T07:45:05.050Z,-2.74
2022-12-14T07:46:05.117Z,-2.71
2022-12-14T07:47:05.019Z,-2.83
2022-12-14T07:48:05.050Z,-2.73
2022-12-14T07:49:05.027Z,-2.84
2022-12-14T07:50:05.015Z,-2.94
2022-12-14T07:51:04.977Z,-2.91
2022-12-14T07:52:04.980Z,-2.84
2022-12-14T07:53:04.955Z,-2.92
2022-12-14T07:54:05.008Z,-2.89
2022-12-14T07:55:04.923Z,-2.95
2022-12-14T07:56:04.919Z,-2.83
2022-12-14T07:57:04.931Z,-2.89
2022-12-14T07:58:04.892Z,-2.91
2022-12-14T07:59:04.876Z,-2.89
2022-12-14T08:00:04.878Z,-2.94
2022-12-14T08:01:04.863Z,-2.94
2022-12-14T08:02:05.143Z,-2.95
2022-12-14T08:03:04.819Z,-2.91
2022-12-14T08:04:04.940Z,-2.92
2022-12-14T08:05:10.599Z,-2.91
2022-12-14T08:06:04.785Z,-2.91
2022-12-14T08:07:04.762Z,-2.88
2022-12-14T08:08:04.755Z,-2.92
2022-12-14T08:09:04.856Z,-2.91
2022-12-14T08:10:04.736Z,-2.98
2022-12-14T08:11:04.741Z,-2.89
2022-12-14T08:12:04.700Z,-2.99
2022-12-14T08:13:04.679Z,-3.04
2022-12-14T08:14:04.680Z,-3.02
2022-12-14T08:15:04.662Z,-2.91
2022-12-14T08:16:04.767Z,-2.95
2022-12-14T08:17:04.670Z,-2.95
2022-12-14T08:18:04.614Z,-2.95
2022-12-14T08:19:04.601Z,-2.88
2022-12-14T08:20:04.621Z,-2.91
2022-12-14T08:21:04.578Z,-3.09
2022-12-14T08:22:04.567Z,-2.92
2022-12-14T08:23:04.552Z,-3.04
2022-12-14T08:24:04.560Z,-3.06
2022-12-14T08:25:04.522Z,-3.09
2022-12-14T08:26:04.513Z,-2.98
2022-12-14T08:27:04.535Z,-3.06
2022-12-14T08:28:04.573Z,-3.10
2022-12-14T08:29:04.508Z,-3.10
2022-12-14T08:30:05.457Z,-3.10
2022-12-14T08:31:04.527Z,-3.06
2022-12-14T08:32:04.466Z,-3.09
2022-12-14T08:33:04.477Z,-3.09
2022-12-14T08:34:04.428Z,-3.01
2022-12-14T08:35:04.397Z,-2.98
2022-12-14T08:36:04.407Z,-2.89
2022-12-14T08:37:04.372Z,-2.94
2022-12-14T08:38:04.369Z,-2.91
2022-12-14T08:39:04.354Z,-2.99
2022-12-14T08:40:04.353Z,-2.95
2022-12-14T08:41:04.308Z,-2.89
2022-12-14T08:42:04.313Z,-2.95
2022-12-14T08:43:04.281Z,-2.94
2022-12-14T08:44:04.288Z,-2.97
2022-12-14T08:45:04.260Z,-2.97
2022-12-14T08:46:04.256Z,-2.92
2022-12-14T08:47:04.309Z,-2.74
2022-12-14T08:48:04.242Z,-2.77
2022-12-14T08:49:04.226Z,-2.59
2022-12-14T08:50:04.205Z,-2.44
2022-12-14T08:51:04.220Z,-2.22
2022-12-14T08:52:04.187Z,-2.01
2022-12-14T08:53:04.173Z,-1.77
2022-12-14T08:54:04.156Z,-1.46
2022-12-14T08:55:04.236Z,-1.26
2022-12-14T08:56:04.145Z,-1.07
2022-12-14T08:57:04.108Z,-0.78
2022-12-14T08:58:04.104Z,-0.61
2022-12-14T08:59:04.083Z,-0.46
2022-12-14T09:00:04.111Z,-0.29
2022-12-14T09:01:04.169Z,-0.07
2022-12-14T09:02:04.221Z,0.10
2022-12-14T09:03:04.168Z,0.34
2022-12-14T09:04:04.034Z,0.55
2022-12-14T09:05:04.028Z,0.55
2022-12-14T09:06:04.041Z,0.59
2022-12-14T09:07:04.000Z,0.60
2022-12-14T09:08:04.002Z,0.65
2022-12-14T09:09:03.992Z,0.58
2022-12-14T09:10:04.045Z,0.62
2022-12-14T09:11:03.996Z,0.59
2022-12-14T09:12:03.965Z,0.40
2022-12-14T09:13:03.945Z,0.29
2022-12-14T09:14:03.964Z,0.22
2022-12-14T09:15:03.946Z,0.23
2022-12-14T09:16:03.983Z,0.18
2022-12-14T09:17:03.914Z,0.07
2022-12-14T09:18:03.976Z,-0.10
2022-12-14T09:19:03.917Z,-0.17
2022-12-14T09:20:03.954Z,-0.32
2022-12-14T09:21:03.895Z,-0.34
2022-12-14T09:22:03.996Z,-0.26
2022-12-14T09:23:03.908Z,-0.32
2022-12-14T09:24:03.852Z,-0.36
2022-12-14T09:25:03.875Z,-0.44
2022-12-14T09:26:03.829Z,-0.44
2022-12-14T09:27:03.831Z,-0.53
2022-12-14T09:28:03.824Z,-0.59
2022-12-14T09:29:03.842Z,-0.67
2022-12-14T09:30:03.784Z,-0.62
2022-12-14T09:31:03.807Z,-0.71
2022-12-14T09:32:03.841Z,-0.64
2022-12-14T09:33:03.779Z,-0.67
2022-12-14T09:34:03.760Z,-0.62
2022-12-14T09:35:03.736Z,-0.49
2022-12-14T09:36:03.820Z,-0.43
2022-12-14T09:37:03.743Z,-0.43
2022-12-14T09:38:03.732Z,-0.31
2022-12-14T09:39:03.702Z,-0.32
2022-12-14T09:40:03.712Z,-0.34
2022-12-14T09:41:07.039Z,-0.21
2022-12-14T09:42:03.678Z,-0.15
2022-12-14T09:43:03.663Z,-0.11
2022-12-14T09:44:03.670Z,-0.02
2022-12-14T09:45:03.632Z,0.10
2022-12-14T09:46:03.680Z,0.08
2022-12-14T09:47:03.617Z,0.22
2022-12-14T09:48:03.616Z,0.19
2022-12-14T09:49:03.596Z,0.21
2022-12-14T09:50:03.601Z,0.12
2022-12-14T09:51:03.629Z,0.07
2022-12-14T09:52:03.571Z,0.07
2022-12-14T09:53:03.565Z,0.04
2022-12-14T09:54:03.567Z,-0.03
2022-12-14T09:55:03.537Z,-0.11
2022-12-14T09:56:03.524Z,-0.25
2022-12-14T09:57:03.532Z,-0.29
2022-12-14T09:58:03.525Z,-0.39
2022-12-14T09:59:03.545Z,-0.49
2022-12-14T10:00:03.487Z,-0.54
2022-12-14T10:01:03.542Z,-0.68
2022-12-14T10:03:06.836Z,-0.68
2022-12-14T10:04:03.628Z,-0.74
2022-12-14T10:05:03.436Z,-0.72
2022-12-14T10:06:03.431Z,-0.75
2022-12-14T10:07:03.408Z,-0.72
2022-12-14T10:08:03.427Z,-0.78
2022-12-14T10:09:03.417Z,-0.83
2022-12-14T10:10:03.382Z,-0.93
2022-12-14T10:11:03.415Z,-0.99
2022-12-14T10:12:03.381Z,-1.01
2022-12-14T10:13:03.346Z,-0.99
2022-12-14T10:14:03.358Z,-0.94
2022-12-14T10:15:03.331Z,-1.07
2022-12-14T10:16:03.332Z,-0.96
2022-12-14T10:17:03.359Z,-0.94
2022-12-14T10:18:03.310Z,-1.05
2022-12-14T10:19:03.795Z,-1.08
2022-12-14T10:20:03.281Z,-1.22
2022-12-14T10:21:03.279Z,-1.15
2022-12-14T10:22:03.279Z,-1.23
2022-12-14T10:23:03.241Z,-1.17
2022-12-14T10:24:03.253Z,-1.22
2022-12-14T10:25:03.243Z,-1.22
2022-12-14T10:26:03.207Z,-1.02
2022-12-14T10:27:03.198Z,-1.07
2022-12-14T10:28:11.843Z,-1.09
2022-12-14T10:29:03.171Z,-1.08
2022-12-14T10:30:03.180Z,-1.05
2022-12-14T10:31:03.151Z,-1.09
2022-12-14T10:32:03.302Z,-1.07
2022-12-14T10:33:03.122Z,-1.05
2022-12-14T10:34:05.408Z,-1.07
2022-12-14T10:35:03.115Z,-1.11
2022-12-14T10:36:03.127Z,-1.07
2022-12-14T10:37:03.105Z,-1.12
2022-12-14T10:38:03.158Z,-1.02
2022-12-14T10:39:03.078Z,-1.17
2022-12-14T10:40:07.630Z,-1.09
2022-12-14T10:41:03.055Z,-1.07
2022-12-14T10:42:03.030Z,-1.19
2022-12-14T10:43:03.054Z,-1.19
2022-12-14T10:44:03.007Z,-1.15
2022-12-14T10:45:39.132Z,-1.23
2022-12-14T10:46:05.198Z,-1.15
2022-12-14T10:47:03.022Z,-1.22
2022-12-14T10:48:02.957Z,-1.22
2022-12-14T10:49:02.942Z,-1.15
2022-12-14T10:50:02.921Z,-1.19
2022-12-14T10:51:02.914Z,-1.15
2022-12-14T10:52:02.918Z,-1.19
2022-12-14T10:53:02.911Z,-1.20
2022-12-14T10:54:02.986Z,-1.26
2022-12-14T10:55:02.887Z,-1.14
2022-12-14T10:56:02.900Z,-1.23
2022-12-14T10:57:02.934Z,-1.17
2022-12-14T10:58:02.859Z,-1.07
2022-12-14T10:59:02.821Z,-1.15
2022-12-14T11:00:09.180Z,-1.12
2022-12-14T11:01:02.852Z,-1.07
2022-12-14T11:02:03.045Z,-1.08
2022-12-14T11:03:02.893Z,-1.09
2022-12-14T11:04:02.764Z,-1.05
2022-12-14T11:05:02.783Z,-1.07
2022-12-14T11:06:02.736Z,-1.08
2022-12-14T11:07:02.741Z,-1.08
2022-12-14T11:08:02.710Z,-1.04
2022-12-14T11:09:02.726Z,-0.99
2022-12-14T11:10:02.730Z,-1.01
2022-12-14T11:11:02.715Z,-0.89
2022-12-14T11:12:02.798Z,-0.97
2022-12-14T11:13:02.656Z,-0.93
2022-12-14T11:14:02.715Z,-0.96
2022-12-14T11:15:02.679Z,-0.90
2022-12-14T11:16:02.626Z,-0.93
2022-12-14T11:17:02.739Z,-0.99
2022-12-14T11:18:02.782Z,-0.96
2022-12-14T11:19:02.597Z,-1.01
2022-12-14T11:20:02.583Z,-0.97
2022-12-14T11:21:02.593Z,-0.94
2022-12-14T11:22:02.589Z,-0.93
2022-12-14T11:23:02.552Z,-0.89
2022-12-14T11:24:02.549Z,-0.93
2022-12-14T11:25:02.534Z,-0.90
2022-12-14T11:26:02.538Z,-0.85
2022-12-14T11:27:02.494Z,-0.85
2022-12-14T11:28:02.479Z,-0.86
2022-12-14T11:29:02.473Z,-0.80
2022-12-14T11:30:02.470Z,-0.94
2022-12-14T11:31:02.556Z,-0.89
2022-12-14T11:32:02.462Z,-0.94
2022-12-14T11:33:02.495Z,-0.89
2022-12-14T11:34:02.419Z,-0.80
2022-12-14T11:35:02.410Z,-0.80
2022-12-14T11:36:02.396Z,-0.78
2022-12-14T11:37:02.394Z,-0.82
2022-12-14T11:38:02.364Z,-0.75
2022-12-14T11:39:02.359Z,-0.82
2022-12-14T11:40:02.360Z,-0.78
2022-12-14T11:41:07.250Z,-0.82
2022-12-14T11:42:02.327Z,-0.77
2022-12-14T11:43:02.312Z,-0.74
2022-12-14T11:44:02.342Z,-0.71
2022-12-14T11:45:02.294Z,-0.71
2022-12-14T11:46:02.378Z,-0.72
2022-12-14T11:47:02.257Z,-0.75
2022-12-14T11:48:02.273Z,-0.72
2022-12-14T11:49:02.282Z,-0.72
2022-12-14T11:50:02.227Z,-0.74
2022-12-14T11:51:02.209Z,-0.71
2022-12-14T11:52:02.221Z,-0.71
2022-12-14T11:53:06.339Z,-0.75
2022-12-14T11:54:02.186Z,-0.72
2022-12-14T11:55:02.174Z,-0.70
2022-12-14T11:56:02.147Z,-0.65
2022-12-14T11:57:02.148Z,-0.70
2022-12-14T11:58:02.143Z,-0.77
2022-12-14T11:59:02.156Z,-0.61
2022-12-14T12:00:02.132Z,-0.68
2022-12-14T12:01:02.109Z,-0.64
2022-12-14T12:02:02.366Z,-0.50
2022-12-14T12:03:02.250Z,-0.52
2022-12-14T12:04:02.155Z,-0.53
2022-12-14T12:05:02.047Z,-0.49
2022-12-14T12:06:02.191Z,-0.39
2022-12-14T12:07:04.600Z,-0.44
2022-12-14T12:08:02.074Z,-0.47
2022-12-14T12:09:02.008Z,-0.49
2022-12-14T12:10:02.005Z,-0.36
2022-12-14T12:11:02.311Z,-0.54
2022-12-14T12:12:01.984Z,-0.49
2022-12-14T12:13:01.954Z,-0.47
2022-12-14T12:14:01.995Z,-0.54
2022-12-14T12:15:01.962Z,-0.64
2022-12-14T12:16:01.947Z,-0.52
2022-12-14T12:17:01.916Z,-0.47
2022-12-14T12:18:01.898Z,-0.52
2022-12-14T12:19:07.826Z,-0.49
2022-12-14T12:20:01.885Z,-0.47
2022-12-14T12:21:01.868Z,-0.46
2022-12-14T12:22:01.848Z,-0.44
2022-12-14T12:23:01.886Z,-0.49
2022-12-14T12:24:01.830Z,-0.46
2022-12-14T12:25:25.067Z,-0.50
2022-12-14T12:26:01.811Z,-0.59
2022-12-14T12:27:02.400Z,-0.59
2022-12-14T12:28:01.784Z,-0.52
2022-12-14T12:29:01.789Z,-0.62
2022-12-14T12:30:01.766Z,-0.53
2022-12-14T12:31:06.017Z,-0.54
2022-12-14T12:32:01.736Z,-0.52
2022-12-14T12:33:01.751Z,-0.54
2022-12-14T12:34:01.720Z,-0.47
2022-12-14T12:35:11.307Z,-0.62
2022-12-14T12:36:01.723Z,-0.46
2022-12-14T12:37:26.827Z,-0.57
2022-12-14T12:38:01.662Z,-0.54
2022-12-14T12:39:01.664Z,-0.67
2022-12-14T12:40:01.667Z,-0.61
2022-12-14T12:41:01.641Z,-0.62
2022-12-14T12:42:05.219Z,-0.59
2022-12-14T12:43:01.659Z,-0.62
2022-12-14T12:44:01.607Z,-0.62
2022-12-14T12:45:01.597Z,-0.71
2022-12-14T12:46:01.643Z,-0.67
2022-12-14T12:47:27.946Z,-0.64
2022-12-14T12:48:01.613Z,-0.65
2022-12-14T12:49:01.822Z,-0.67
2022-12-14T12:50:01.523Z,-0.71
2022-12-14T12:51:01.588Z,-0.75
2022-12-14T12:52:01.507Z,-0.75
2022-12-14T12:53:04.005Z,-0.71
2022-12-14T12:54:01.482Z,-0.72